createdAt,value
2023-05-22T00:01:11.277Z,94511.94
2023-05-22T00:03:37.675Z,94512.03
2023-05-22T00:06:04.119Z,94501.63
2023-05-22T00:08:30.488Z,94493.25
2023-05-22T00:10:56.864Z,94498.25
2023-05-22T00:13:23.221Z,94497.09
2023-05-22T00:15:49.609Z,94491.41
2023-05-22T00:18:15.991Z,94495.47
2023-05-22T00:20:42.338Z,94503.00
2023-05-22T00:23:08.720Z,94499.94
2023-05-22T00:25:35.070Z,94504.91
2023-05-22T00:28:01.434Z,94504.31
2023-05-22T00:30:27.818Z,94505.25
2023-05-22T00:32:54.206Z,94499.31
2023-05-22T00:35:20.574Z,94492.69
2023-05-22T00:37:46.968Z,94495.34
2023-05-22T00:40:13.351Z,94494.69
2023-05-22T00:42:39.725Z,94496.31
2023-05-22T00:45:06.080Z,94495.00
2023-05-22T00:47:32.504Z,94493.22
2023-05-22T00:49:58.901Z,94496.84
2023-05-22T00:52:25.274Z,94499.59
2023-05-22T00:54:51.632Z,94489.63
2023-05-22T00:57:17.991Z,94498.06
2023-05-22T00:59:44.361Z,94500.72
2023-05-22T01:02:10.807Z,94496.13
2023-05-22T01:04:37.189Z,94491.19
2023-05-22T01:07:03.549Z,94491.81
2023-05-22T01:09:30.015Z,94487.19
2023-05-22T01:11:56.382Z,94485.81
2023-05-22T01:14:22.757Z,94483.22
2023-05-22T01:16:49.130Z,94476.19
2023-05-22T01:19:15.617Z,94472.78
2023-05-22T01:21:42.030Z,94474.88
2023-05-22T01:24:08.426Z,94474.81
2023-05-22T01:26:34.805Z,94479.00
2023-05-22T01:29:01.185Z,94471.22
2023-05-22T01:31:27.533Z,94478.16
2023-05-22T01:33:53.995Z,94477.63
2023-05-22T01:36:20.537Z,94476.59
2023-05-22T01:38:46.906Z,94474.41
2023-05-22T01:41:13.288Z,94470.25
2023-05-22T01:43:39.641Z,94472.31
2023-05-22T01:46:06.002Z,94467.88
2023-05-22T01:48:32.386Z,94464.63
2023-05-22T01:50:58.760Z,94466.69
2023-05-22T01:53:25.122Z,94465.09
2023-05-22T01:55:51.491Z,94464.06
2023-05-22T01:58:17.885Z,94465.09
2023-05-22T02:00:44.295Z,94463.63
2023-05-22T02:03:10.912Z,94462.22
2023-05-22T02:05:37.396Z,94473.88
2023-05-22T02:08:03.786Z,94469.59
2023-05-22T02:10:30.162Z,94475.47
2023-05-22T02:12:56.516Z,94474.00
2023-05-22T02:15:22.871Z,94469.50
2023-05-22T02:17:49.328Z,94465.66
2023-05-22T02:20:15.797Z,94464.66
2023-05-22T02:22:42.170Z,94464.53
2023-05-22T02:25:08.540Z,94465.59
2023-05-22T02:27:34.904Z,94465.78
2023-05-22T02:30:01.298Z,94463.94
2023-05-22T02:32:27.666Z,94462.50
2023-05-22T02:34:54.863Z,94464.41
2023-05-22T02:37:21.300Z,94473.97
2023-05-22T02:39:47.657Z,94461.88
2023-05-22T02:42:14.028Z,94461.88
2023-05-22T02:44:40.384Z,94473.94
2023-05-22T02:47:06.764Z,94470.91
2023-05-22T02:49:33.114Z,94470.16
2023-05-22T02:51:59.472Z,94476.63
2023-05-22T02:54:25.826Z,94473.44
2023-05-22T02:56:52.185Z,94471.81
2023-05-22T02:59:18.575Z,94471.81
2023-05-22T03:01:44.949Z,94473.03
2023-05-22T03:04:11.339Z,94474.53
2023-05-22T03:06:37.766Z,94484.50
2023-05-22T03:09:04.121Z,94477.84
2023-05-22T03:11:30.491Z,94476.00
2023-05-22T03:13:56.831Z,94484.63
2023-05-22T03:16:23.379Z,94474.72
2023-05-22T03:18:49.782Z,94479.84
2023-05-22T03:21:16.142Z,94482.72
2023-05-22T03:23:42.507Z,94480.56
2023-05-22T03:26:08.905Z,94478.56
2023-05-22T03:28:35.280Z,94486.38
2023-05-22T03:31:01.650Z,94489.84
2023-05-22T03:33:28.071Z,94484.19
2023-05-22T03:35:54.495Z,94487.28
2023-05-22T03:38:20.856Z,94490.34
2023-05-22T03:40:47.224Z,94496.31
2023-05-22T03:43:13.601Z,94504.06
2023-05-22T03:45:40.005Z,94502.44
2023-05-22T03:48:06.463Z,94507.97
2023-05-22T03:50:32.904Z,94507.28
2023-05-22T03:52:59.257Z,94503.41
2023-05-22T03:55:25.593Z,94505.69
2023-05-22T03:57:51.950Z,94507.50
2023-05-22T04:00:18.302Z,94505.44
2023-05-22T04:02:44.835Z,94503.16
2023-05-22T04:05:11.501Z,94507.97
2023-05-22T04:07:37.906Z,94502.88
2023-05-22T04:10:04.277Z,94509.19
2023-05-22T04:12:30.648Z,94506.28
2023-05-22T04:14:56.997Z,94511.97
2023-05-22T04:17:23.421Z,94514.22
2023-05-22T04:19:49.839Z,94509.31
2023-05-22T04:22:16.207Z,94520.28
2023-05-22T04:24:42.557Z,94512.91
2023-05-22T04:27:08.932Z,94519.22
2023-05-22T04:29:35.346Z,94518.34
2023-05-22T04:32:01.720Z,94518.31
2023-05-22T04:34:28.090Z,94527.25
2023-05-22T04:36:54.435Z,94523.75
2023-05-22T04:39:20.801Z,94525.97
2023-05-22T04:41:47.172Z,94520.66
2023-05-22T04:44:13.517Z,94520.84
2023-05-22T04:46:39.907Z,94522.84
2023-05-22T04:49:06.355Z,94522.03
2023-05-22T04:51:37.832Z,94525.72
2023-05-22T04:54:04.351Z,94527.94
2023-05-22T04:56:37.003Z,94525.50
2023-05-22T04:59:03.786Z,94528.56
2023-05-22T05:01:31.718Z,94526.53
2023-05-22T05:03:59.548Z,94527.31
2023-05-22T05:06:25.941Z,94523.56
2023-05-22T05:08:52.336Z,94529.66
2023-05-22T05:11:18.692Z,94525.13
2023-05-22T05:13:45.049Z,94528.53
2023-05-22T05:16:11.445Z,94526.84
2023-05-22T05:18:37.934Z,94525.16
2023-05-22T05:21:04.297Z,94524.25
2023-05-22T05:23:30.655Z,94531.03
2023-05-22T05:25:57.035Z,94524.72
2023-05-22T05:28:23.460Z,94518.06
2023-05-22T05:30:49.830Z,94519.56
2023-05-22T05:33:16.267Z,94523.22
2023-05-22T05:35:43.126Z,94523.09
2023-05-22T05:38:09.660Z,94528.19
2023-05-22T05:40:36.011Z,94524.94
2023-05-22T05:43:02.384Z,94517.72
2023-05-22T05:45:28.781Z,94519.19
2023-05-22T05:47:55.194Z,94511.34
2023-05-22T05:50:21.585Z,94519.50
2023-05-22T05:52:47.990Z,94525.44
2023-05-22T05:55:14.358Z,94524.47
2023-05-22T05:57:40.724Z,94525.63
2023-05-22T06:00:07.074Z,94520.91
2023-05-22T06:02:33.550Z,94516.81
2023-05-22T06:04:59.963Z,94519.63
2023-05-22T06:07:26.328Z,94527.75
2023-05-22T06:09:52.724Z,94515.84
2023-05-22T06:12:19.084Z,94523.28
2023-05-22T06:14:45.459Z,94521.78
2023-05-22T06:17:11.887Z,94520.91
2023-05-22T06:19:38.283Z,94521.72
2023-05-22T06:22:05.813Z,94518.28
2023-05-22T06:24:32.192Z,94527.06
2023-05-22T06:26:58.559Z,94526.78
2023-05-22T06:29:24.928Z,94530.34
2023-05-22T06:31:51.363Z,94529.31
2023-05-22T06:34:17.778Z,94533.47
2023-05-22T06:36:44.170Z,94535.13
2023-05-22T06:39:10.517Z,94535.34
2023-05-22T06:41:37.938Z,94539.03
2023-05-22T06:44:04.303Z,94539.97
2023-05-22T06:46:30.804Z,94544.75
2023-05-22T06:48:57.225Z,94543.25
2023-05-22T06:51:23.620Z,94545.56
2023-05-22T06:53:49.986Z,94545.41
2023-05-22T06:56:16.344Z,94547.28
2023-05-22T06:58:42.712Z,94549.50
2023-05-22T07:01:09.086Z,94552.03
2023-05-22T07:03:35.453Z,94561.56
2023-05-22T07:06:01.865Z,94556.34
2023-05-22T07:08:30.423Z,94558.28
2023-05-22T07:10:57.164Z,94567.69
2023-05-22T07:13:23.513Z,94562.13
2023-05-22T07:15:49.872Z,94568.06
2023-05-22T07:18:16.234Z,94567.91
2023-05-22T07:20:42.780Z,94574.19
2023-05-22T07:23:09.273Z,94574.31
2023-05-22T07:25:35.630Z,94578.25
2023-05-22T07:28:01.995Z,94577.53
2023-05-22T07:30:28.362Z,94565.38
2023-05-22T07:32:54.770Z,94574.28
2023-05-22T07:35:21.177Z,94580.91
2023-05-22T07:37:47.584Z,94574.91
2023-05-22T07:40:13.934Z,94574.41
2023-05-22T07:42:40.331Z,94579.16
2023-05-22T07:45:06.709Z,94571.06
2023-05-22T07:47:33.112Z,94573.81
2023-05-22T07:49:59.496Z,94574.41
2023-05-22T07:52:25.885Z,94564.88
2023-05-22T07:54:52.239Z,94564.63
2023-05-22T07:57:18.599Z,94568.22
2023-05-22T07:59:44.971Z,94564.34
2023-05-22T08:02:11.372Z,94561.78
2023-05-22T08:04:37.872Z,94567.09
2023-05-22T08:07:04.376Z,94564.34
2023-05-22T08:09:30.757Z,94566.53
2023-05-22T08:11:57.130Z,94564.91
2023-05-22T08:14:23.510Z,94557.78
2023-05-22T08:16:49.964Z,94554.81
2023-05-22T08:19:16.620Z,94552.25
2023-05-22T08:21:43.049Z,94557.34
2023-05-22T08:24:09.400Z,94557.75
2023-05-22T08:26:35.786Z,94551.19
2023-05-22T08:29:02.156Z,94549.47
2023-05-22T08:31:28.575Z,94550.03
2023-05-22T08:33:54.945Z,94550.53
2023-05-22T08:36:21.312Z,94540.56
2023-05-22T08:38:47.682Z,94537.03
2023-05-22T08:41:14.043Z,94536.66
2023-05-22T08:43:40.394Z,94531.69
2023-05-22T08:46:06.858Z,94531.09
2023-05-22T08:48:33.247Z,94531.81
2023-05-22T08:50:59.627Z,94532.41
2023-05-22T08:53:26.189Z,94531.00
2023-05-22T08:55:52.616Z,94529.25
2023-05-22T08:58:19.028Z,94531.81
2023-05-22T09:00:45.491Z,94525.94
2023-05-22T09:03:11.997Z,94526.97
2023-05-22T09:05:38.425Z,94535.19
2023-05-22T09:08:15.955Z,94533.56
2023-05-22T09:10:45.819Z,94529.81
2023-05-22T09:13:12.170Z,94533.03
2023-05-22T09:15:38.547Z,94527.50
2023-05-22T09:18:05.005Z,94523.22
2023-05-22T09:20:31.409Z,94524.09
2023-05-22T09:22:57.761Z,94519.84
2023-05-22T09:25:24.125Z,94521.41
2023-05-22T09:27:50.576Z,94517.75
2023-05-22T09:30:16.939Z,94514.88
2023-05-22T09:32:43.348Z,94510.38
2023-05-22T09:35:09.781Z,94519.06
2023-05-22T09:37:36.156Z,94508.22
2023-05-22T09:40:02.551Z,94513.16
2023-05-22T09:42:28.911Z,94504.34
2023-05-22T09:44:55.263Z,94507.81
2023-05-22T09:47:21.620Z,94504.94
2023-05-22T09:49:48.017Z,94508.47
2023-05-22T09:52:14.375Z,94503.41
2023-05-22T09:54:40.729Z,94503.16
2023-05-22T09:57:07.123Z,94506.22
2023-05-22T09:59:33.503Z,94496.88
2023-05-22T10:01:59.917Z,94496.09
2023-05-22T10:04:26.384Z,94502.56
2023-05-22T10:06:52.761Z,94496.69
2023-05-22T10:09:19.644Z,94491.84
2023-05-22T10:11:46.192Z,94498.09
2023-05-22T10:14:12.567Z,94498.38
2023-05-22T10:16:39.047Z,94503.56
2023-05-22T10:19:05.503Z,94489.03
2023-05-22T10:21:31.887Z,94493.91
2023-05-22T10:23:58.251Z,94487.97
2023-05-22T10:26:24.626Z,94488.28
2023-05-22T10:28:50.976Z,94491.25
2023-05-22T10:31:17.988Z,94484.53
2023-05-22T10:33:44.461Z,94489.63
2023-05-22T10:36:10.831Z,94482.38
2023-05-22T10:38:37.200Z,94480.44
2023-05-22T10:41:03.585Z,94488.22
2023-05-22T10:43:29.973Z,94480.13
2023-05-22T10:45:56.346Z,94487.13
2023-05-22T10:48:22.785Z,94481.22
2023-05-22T10:50:49.273Z,94479.06
2023-05-22T10:53:15.654Z,94479.59
2023-05-22T10:55:42.032Z,94483.34
2023-05-22T10:58:08.385Z,94475.78
2023-05-22T11:00:34.745Z,94470.09
2023-05-22T11:03:09.934Z,94462.53
2023-05-22T11:05:43.320Z,94469.75
2023-05-22T11:08:09.695Z,94468.59
2023-05-22T11:10:36.064Z,94470.94
2023-05-22T11:13:02.429Z,94469.84
2023-05-22T11:15:28.793Z,94467.66
2023-05-22T11:17:55.355Z,94462.47
2023-05-22T11:20:21.801Z,94465.41
2023-05-22T11:22:48.157Z,94459.19
2023-05-22T11:25:14.558Z,94461.31
2023-05-22T11:27:40.931Z,94465.69
2023-05-22T11:30:07.305Z,94457.22
2023-05-22T11:32:33.698Z,94458.00
2023-05-22T11:35:00.069Z,94452.84
2023-05-22T11:37:26.445Z,94447.47
2023-05-22T11:39:52.820Z,94450.88
2023-05-22T11:42:19.178Z,94445.66
2023-05-22T11:44:45.528Z,94446.91
2023-05-22T11:47:12.073Z,94445.50
2023-05-22T11:49:38.456Z,94447.63
2023-05-22T11:52:04.832Z,94450.25
2023-05-22T11:54:31.201Z,94452.31
2023-05-22T11:56:57.576Z,94447.53
2023-05-22T11:59:23.966Z,94451.25
2023-05-22T12:01:50.397Z,94439.97
2023-05-22T12:04:16.874Z,94437.56
2023-05-22T12:06:43.324Z,94444.78
2023-05-22T12:09:09.852Z,94434.66
2023-05-22T12:11:36.206Z,94436.44
2023-05-22T12:14:02.595Z,94431.63
2023-05-22T12:16:28.995Z,94426.69
2023-05-22T12:18:55.438Z,94443.28
2023-05-22T12:21:21.818Z,94427.78
2023-05-22T12:23:48.182Z,94430.09
2023-05-22T12:26:14.545Z,94436.94
2023-05-22T12:28:40.898Z,94436.84
2023-05-22T12:31:07.314Z,94428.72
2023-05-22T12:33:33.714Z,94438.19
2023-05-22T12:36:00.102Z,94436.13
2023-05-22T12:38:26.473Z,94440.66
2023-05-22T12:40:52.837Z,94448.28
2023-05-22T12:43:19.207Z,94442.72
2023-05-22T12:45:45.580Z,94441.09
2023-05-22T12:48:12.012Z,94441.66
2023-05-22T12:50:38.680Z,94431.69
2023-05-22T12:53:05.266Z,94436.97
2023-05-22T12:55:31.674Z,94432.19
2023-05-22T12:57:58.054Z,94435.03
2023-05-22T13:00:24.432Z,94429.88
2023-05-22T13:02:50.873Z,94429.97
2023-05-22T13:05:17.327Z,94435.56
2023-05-22T13:07:43.821Z,94424.34
2023-05-22T13:10:10.246Z,94430.34
2023-05-22T13:12:36.621Z,94425.88
2023-05-22T13:15:03.006Z,94426.09
2023-05-22T13:17:29.388Z,94424.34
2023-05-22T13:19:55.763Z,94424.47
2023-05-22T13:22:22.117Z,94425.25
2023-05-22T13:24:48.470Z,94427.00
2023-05-22T13:27:14.855Z,94413.31
2023-05-22T13:29:41.236Z,94418.03
2023-05-22T13:32:07.587Z,94414.16
2023-05-22T13:34:34.008Z,94411.59
2023-05-22T13:37:00.569Z,94405.22
2023-05-22T13:39:26.944Z,94409.72
2023-05-22T13:41:53.324Z,94402.72
2023-05-22T13:44:19.673Z,94398.22
2023-05-22T13:46:46.119Z,94391.69
2023-05-22T13:49:12.524Z,94387.56
2023-05-22T13:51:38.904Z,94384.19
2023-05-22T13:54:05.316Z,94381.28
2023-05-22T13:56:31.711Z,94385.50
2023-05-22T13:58:58.105Z,94387.13
2023-05-22T14:01:24.509Z,94379.59
2023-05-22T14:03:50.891Z,94386.94
2023-05-22T14:06:17.257Z,94391.56
2023-05-22T14:08:43.614Z,94390.75
2023-05-22T14:11:09.971Z,94393.84
2023-05-22T14:13:36.323Z,94392.81
2023-05-22T14:16:02.685Z,94389.19
2023-05-22T14:18:29.027Z,94392.50
2023-05-22T14:20:55.387Z,94391.28
2023-05-22T14:23:21.766Z,94387.38
2023-05-22T14:25:48.134Z,94377.41
2023-05-22T14:28:14.504Z,94385.03
2023-05-22T14:30:40.915Z,94377.84
2023-05-22T14:33:07.432Z,94382.94
2023-05-22T14:35:33.815Z,94384.28
2023-05-22T14:38:00.174Z,94379.00
2023-05-22T14:40:26.538Z,94375.56
2023-05-22T14:42:54.386Z,94376.44
2023-05-22T14:45:20.993Z,94376.34
2023-05-22T14:47:47.398Z,94376.56
2023-05-22T14:50:22.489Z,94373.34
2023-05-22T14:52:49.451Z,94378.16
2023-05-22T14:55:16.067Z,94380.84
2023-05-22T14:57:42.427Z,94377.75
2023-05-22T15:00:08.794Z,94381.03
2023-05-22T15:02:35.202Z,94376.38
2023-05-22T15:05:01.650Z,94380.69
2023-05-22T15:07:39.623Z,94372.66
2023-05-22T15:10:10.012Z,94374.78
2023-05-22T15:12:36.409Z,94379.50
2023-05-22T15:15:02.764Z,94386.41
2023-05-22T15:17:29.179Z,94376.97
2023-05-22T15:19:55.562Z,94377.53
2023-05-22T15:22:21.933Z,94372.84
2023-05-22T15:24:48.312Z,94374.47
2023-05-22T15:27:14.665Z,94380.53
2023-05-22T15:29:41.039Z,94376.34
2023-05-22T15:32:07.460Z,94377.38
2023-05-22T15:34:35.303Z,94374.25
2023-05-22T15:37:01.664Z,94380.19
2023-05-22T15:39:28.022Z,94383.41
2023-05-22T15:42:05.867Z,94386.41
2023-05-22T15:44:33.272Z,94388.28
2023-05-22T15:46:59.637Z,94393.22
2023-05-22T15:49:27.404Z,94388.22
2023-05-22T15:52:00.056Z,94391.94
2023-05-22T15:54:26.442Z,94388.97
2023-05-22T15:56:52.835Z,94385.16
2023-05-22T15:59:19.209Z,94390.97
2023-05-22T16:01:45.722Z,94398.75
2023-05-22T16:04:12.188Z,94392.53
2023-05-22T16:06:38.566Z,94388.97
2023-05-22T16:09:04.936Z,94378.31
2023-05-22T16:11:31.314Z,94389.84
2023-05-22T16:13:57.679Z,94382.63
2023-05-22T16:16:24.087Z,94389.25
2023-05-22T16:18:50.488Z,94396.84
2023-05-22T16:21:16.869Z,94386.69
2023-05-22T16:23:43.285Z,94391.72
2023-05-22T16:26:09.666Z,94396.16
2023-05-22T16:28:36.027Z,94395.44
2023-05-22T16:31:02.441Z,94397.88
2023-05-22T16:33:28.856Z,94404.06
2023-05-22T16:35:55.249Z,94415.94
2023-05-22T16:38:21.630Z,94422.69
2023-05-22T16:40:47.972Z,94414.44
2023-05-22T16:43:14.350Z,94412.25
2023-05-22T16:45:40.943Z,94422.59
2023-05-22T16:48:07.650Z,94403.28
2023-05-22T16:50:34.057Z,94406.34
2023-05-22T16:53:00.429Z,94408.69
2023-05-22T16:55:26.888Z,94403.88
2023-05-22T16:57:53.265Z,94398.56
2023-05-22T17:00:20.115Z,94397.38
2023-05-22T17:02:46.688Z,94395.81
2023-05-22T17:05:13.212Z,94400.09
2023-05-22T17:07:39.605Z,94403.72
2023-05-22T17:10:05.974Z,94405.28
2023-05-22T17:12:32.354Z,94414.09
2023-05-22T17:14:58.707Z,94412.75
2023-05-22T17:17:25.151Z,94412.53
2023-05-22T17:19:51.560Z,94416.91
2023-05-22T17:22:17.939Z,94426.25
2023-05-22T17:24:44.296Z,94425.28
2023-05-22T17:27:11.103Z,94424.19
2023-05-22T17:29:37.505Z,94431.28
2023-05-22T17:32:03.889Z,94441.97
2023-05-22T17:34:30.247Z,94446.72
2023-05-22T17:36:56.617Z,94444.50
2023-05-22T17:39:23.425Z,94441.25
2023-05-22T17:41:49.841Z,94437.44
2023-05-22T17:44:16.195Z,94436.19
2023-05-22T17:46:42.591Z,94436.66
2023-05-22T17:49:09.027Z,94434.66
2023-05-22T17:51:35.402Z,94435.13
2023-05-22T17:54:01.803Z,94443.56
2023-05-22T17:56:28.173Z,94438.38
2023-05-22T17:58:54.531Z,94437.41
2023-05-22T18:01:20.959Z,94446.44
2023-05-22T18:03:47.583Z,94445.63
2023-05-22T18:06:14.150Z,94443.88
2023-05-22T18:08:40.558Z,94444.22
2023-05-22T18:11:06.937Z,94447.50
2023-05-22T18:13:33.295Z,94451.78
2023-05-22T18:15:59.710Z,94453.00
2023-05-22T18:18:26.135Z,94463.41
2023-05-22T18:20:52.487Z,94463.97
2023-05-22T18:23:18.832Z,94467.72
2023-05-22T18:25:45.215Z,94470.25
2023-05-22T18:28:11.600Z,94470.56
2023-05-22T18:30:38.052Z,94468.81
2023-05-22T18:33:04.610Z,94471.66
2023-05-22T18:35:31.031Z,94472.03
2023-05-22T18:37:57.389Z,94469.34
2023-05-22T18:40:23.758Z,94473.69
2023-05-22T18:42:50.125Z,94471.28
2023-05-22T18:45:16.490Z,94470.81
2023-05-22T18:47:42.873Z,94472.78
2023-05-22T18:50:09.295Z,94471.94
2023-05-22T18:52:35.659Z,94469.31
2023-05-22T18:55:02.021Z,94476.38
2023-05-22T18:57:28.383Z,94469.41
2023-05-22T18:59:54.755Z,94476.16
2023-05-22T19:02:21.185Z,94460.84
2023-05-22T19:04:47.654Z,94465.13
2023-05-22T19:07:14.133Z,94465.41
2023-05-22T19:09:40.473Z,94464.59
2023-05-22T19:12:06.831Z,94466.50
2023-05-22T19:14:33.216Z,94475.63
2023-05-22T19:16:59.685Z,94473.22
2023-05-22T19:19:26.237Z,94480.75
2023-05-22T19:21:52.632Z,94478.56
2023-05-22T19:24:18.997Z,94480.19
2023-05-22T19:26:45.350Z,94480.97
2023-05-22T19:29:11.692Z,94475.28
2023-05-22T19:31:38.269Z,94465.88
2023-05-22T19:34:04.681Z,94479.28
2023-05-22T19:36:31.053Z,94477.09
2023-05-22T19:38:57.440Z,94483.50
2023-05-22T19:41:23.792Z,94486.38
2023-05-22T19:43:50.146Z,94494.81
2023-05-22T19:46:16.559Z,94495.53
2023-05-22T19:48:42.963Z,94499.19
2023-05-22T19:51:09.349Z,94494.09
2023-05-22T19:53:35.708Z,94499.94
2023-05-22T19:56:02.077Z,94499.78
2023-05-22T19:58:28.429Z,94506.06
2023-05-22T20:00:54.790Z,94505.25
2023-05-22T20:03:21.259Z,94512.47
2023-05-22T20:05:47.693Z,94508.22
2023-05-22T20:08:14.061Z,94529.38
2023-05-22T20:10:40.613Z,94522.41
2023-05-22T20:13:07.152Z,94520.81
2023-05-22T20:15:33.512Z,94524.00
2023-05-22T20:17:59.959Z,94522.88
2023-05-22T20:20:26.369Z,94523.75
2023-05-22T20:22:52.804Z,94525.53
2023-05-22T20:25:19.178Z,94521.59
2023-05-22T20:27:45.550Z,94522.78
2023-05-22T20:30:11.941Z,94528.28
2023-05-22T20:32:38.300Z,94543.25
2023-05-22T20:35:04.697Z,94545.81
2023-05-22T20:37:31.068Z,94552.09
2023-05-22T20:39:57.448Z,94554.22
2023-05-22T20:42:23.828Z,94558.94
2023-05-22T20:44:50.183Z,94563.34
2023-05-22T20:47:16.530Z,94561.38
2023-05-22T20:49:42.906Z,94568.03
2023-05-22T20:52:09.254Z,94574.13
2023-05-22T20:54:35.624Z,94567.56
2023-05-22T20:57:02.042Z,94567.25
2023-05-22T20:59:28.432Z,94571.22
2023-05-22T21:01:54.806Z,94571.78
2023-05-22T21:04:21.189Z,94578.19
2023-05-22T21:06:47.600Z,94582.78
2023-05-22T21:09:13.961Z,94588.16
2023-05-22T21:11:40.341Z,94585.41
2023-05-22T21:14:06.721Z,94585.66
2023-05-22T21:16:33.115Z,94583.69
2023-05-22T21:18:59.601Z,94588.53
2023-05-22T21:21:25.989Z,94591.47
2023-05-22T21:23:52.350Z,94590.91
2023-05-22T21:26:18.700Z,94594.91
2023-05-22T21:28:45.296Z,94581.44
2023-05-22T21:31:11.689Z,94591.88
2023-05-22T21:33:38.066Z,94583.72
2023-05-22T21:36:04.686Z,94590.25
2023-05-22T21:38:31.069Z,94597.53
2023-05-22T21:40:57.430Z,94590.41
2023-05-22T21:43:23.938Z,94590.22
2023-05-22T21:45:50.339Z,94594.75
2023-05-22T21:48:16.708Z,94598.63
2023-05-22T21:50:43.093Z,94604.13
2023-05-22T21:53:09.461Z,94603.56
2023-05-22T21:55:35.833Z,94596.63
2023-05-22T21:58:02.201Z,94595.66
2023-05-22T22:00:28.628Z,94596.41
2023-05-22T22:02:55.177Z,94591.13
2023-05-22T22:05:21.613Z,94591.94
2023-05-22T22:07:47.985Z,94587.81
2023-05-22T22:10:14.358Z,94578.75
2023-05-22T22:12:40.754Z,94582.72
2023-05-22T22:15:07.130Z,94588.22
2023-05-22T22:17:33.600Z,94582.13
2023-05-22T22:20:00.013Z,94577.28
2023-05-22T22:22:26.446Z,94574.84
2023-05-22T22:24:52.813Z,94584.25
2023-05-22T22:27:19.185Z,94588.41
2023-05-22T22:29:45.586Z,94585.25
2023-05-22T22:32:12.053Z,94590.41
2023-05-22T22:34:38.549Z,94590.75
2023-05-22T22:37:04.926Z,94590.53
2023-05-22T22:39:31.282Z,94589.25
2023-05-22T22:41:57.650Z,94592.50
2023-05-22T22:44:24.051Z,94590.88
2023-05-22T22:46:50.429Z,94599.94
2023-05-22T22:49:16.802Z,94604.38
2023-05-22T22:51:43.177Z,94609.81
2023-05-22T22:54:09.549Z,94600.97
2023-05-22T22:56:36.203Z,94606.91
2023-05-22T22:59:02.625Z,94610.63
2023-05-22T23:01:29.042Z,94607.03
2023-05-22T23:03:55.500Z,94615.66
2023-05-22T23:06:21.890Z,94619.63
2023-05-22T23:08:48.255Z,94614.78
2023-05-22T23:11:14.606Z,94614.41
2023-05-22T23:13:41.233Z,94618.03
2023-05-22T23:16:07.865Z,94616.44
2023-05-22T23:18:34.240Z,94603.53
2023-05-22T23:21:00.638Z,94608.41
2023-05-22T23:23:27.006Z,94609.78
2023-05-22T23:25:53.373Z,94610.72
2023-05-22T23:28:19.749Z,94609.19
2023-05-22T23:30:46.139Z,94606.28
2023-05-22T23:33:12.500Z,94604.66
2023-05-22T23:35:39.181Z,94605.47
2023-05-22T23:38:05.874Z,94598.06
2023-05-22T23:40:32.281Z,94600.13
2023-05-22T23:42:58.643Z,94603.50
2023-05-22T23:45:25.000Z,94610.34
2023-05-22T23:47:51.436Z,94604.19
2023-05-22T23:50:17.847Z,94610.00
2023-05-22T23:52:44.220Z,94605.25
2023-05-22T23:55:10.596Z,94597.03
2023-05-22T23:57:36.950Z,94591.56
